首页
METAR-TAF:

METAR-TAF

机场 :

基希讷乌国际机场

基希讷乌, 摩尔多瓦

纬度: 46-55-40N, 经度: 028-55-51E, 海拔: 122米

当前天气观测

该预报发布于35分钟前的12:30 UTC
风速5节,风向,在东转东北东南之间变化
温度 0°C
湿度 80%
气压 1030 hPa
能见度10公里或以上
阴天层高于1300英尺

METAR: LUKK 191230Z 10005KT 070V130 9999 OVC013 00/M03 Q1030 R08/D NOSIG

时间: 15:05 (13:05 UTC)

预报

该预报发布于1小时和45分钟前的11:20 UTC
预报有效从19日的 12点(UTC)到 20日的 12点(UTC)
风速6节,风向
能見度: 8000
阴天层高于1000英尺
短暂存在
从 19日的 15点(UTC)到 20日的 08点(UTC)
阴天层高于500英尺
成为
从 19日的 18点(UTC)到 19日的 20点(UTC)
风速8节,风向北转东北

TAF: LUKK 191120Z 1912/2012 09006KT 8000 OVC010 TEMPO 1915/2008 OVC005 BECMG 1918/1920 02008KT

超过4000个机场的气象观测和天气预报(METAR&TAF报告)。

可查询的气象台以黄色和红色小点在地图上表示。

将鼠标移到小点上方,可查看气象台名称。

然后点击查看天气观测和预报。

如需切换地图:点击带黑十字的绿色按钮放大地图;点击带横线的绿色按钮缩小地图;或者点击绿色箭头查看邻近地区的地图。


METAR-TAF: